sensor_id;sensor_type;location;lat;lon;timestamp;temperature;humidity
21830;DHT22;11077;50.264;6.798;2023-06-26T00:00:56;17.60;99.90
21830;DHT22;11077;50.264;6.798;2023-06-26T00:03:24;17.60;99.90
21830;DHT22;11077;50.264;6.798;2023-06-26T00:05:51;17.50;99.90
21830;DHT22;11077;50.264;6.798;2023-06-26T00:08:19;17.50;99.90
21830;DHT22;11077;50.264;6.798;2023-06-26T00:10:47;17.50;99.90
21830;DHT22;11077;50.264;6.798;2023-06-26T00:13:17;17.40;99.90
21830;DHT22;11077;50.264;6.798;2023-06-26T00:15:44;17.40;99.90
21830;DHT22;11077;50.264;6.798;2023-06-26T00:18:11;17.30;99.90
21830;DHT22;11077;50.264;6.798;2023-06-26T00:20:38;17.20;99.90
21830;DHT22;11077;50.264;6.798;2023-06-26T00:23:06;17.20;99.90
21830;DHT22;11077;50.264;6.798;2023-06-26T00:25:34;17.20;99.90
21830;DHT22;11077;50.264;6.798;2023-06-26T00:28:02;17.20;99.90
21830;DHT22;11077;50.264;6.798;2023-06-26T00:30:29;17.20;99.90
21830;DHT22;11077;50.264;6.798;2023-06-26T00:32:57;17.20;99.90
21830;DHT22;11077;50.264;6.798;2023-06-26T00:35:24;17.10;99.90
21830;DHT22;11077;50.264;6.798;2023-06-26T00:37:51;17.10;99.90
21830;DHT22;11077;50.264;6.798;2023-06-26T00:40:19;17.10;99.90
21830;DHT22;11077;50.264;6.798;2023-06-26T00:42:47;17.10;99.90
21830;DHT22;11077;50.264;6.798;2023-06-26T00:45:14;17.10;99.90
21830;DHT22;11077;50.264;6.798;2023-06-26T00:47:42;17.10;99.90
21830;DHT22;11077;50.264;6.798;2023-06-26T00:50:09;17.10;99.90
21830;DHT22;11077;50.264;6.798;2023-06-26T00:52:37;17.10;99.90
21830;DHT22;11077;50.264;6.798;2023-06-26T00:55:06;17.00;99.90
21830;DHT22;11077;50.264;6.798;2023-06-26T00:57:33;17.00;99.90
21830;DHT22;11077;50.264;6.798;2023-06-26T01:00:03;16.90;99.90
21830;DHT22;11077;50.264;6.798;2023-06-26T01:02:31;16.90;99.90
21830;DHT22;11077;50.264;6.798;2023-06-26T01:05:00;16.90;99.90
21830;DHT22;11077;50.264;6.798;2023-06-26T01:07:29;16.90;99.90
21830;DHT22;11077;50.264;6.798;2023-06-26T01:10:00;17.00;99.90
21830;DHT22;11077;50.264;6.798;2023-06-26T01:12:28;17.00;99.90
21830;DHT22;11077;50.264;6.798;2023-06-26T01:14:55;17.00;99.90
21830;DHT22;11077;50.264;6.798;2023-06-26T01:17:25;17.00;99.90
21830;DHT22;11077;50.264;6.798;2023-06-26T01:19:53;17.00;99.90
21830;DHT22;11077;50.264;6.798;2023-06-26T01:22:27;17.00;99.90
21830;DHT22;11077;50.264;6.798;2023-06-26T01:25:03;17.00;99.90
21830;DHT22;11077;50.264;6.798;2023-06-26T01:27:38;17.00;99.90
21830;DHT22;11077;50.264;6.798;2023-06-26T01:30:06;17.00;99.90
21830;DHT22;11077;50.264;6.798;2023-06-26T01:32:35;17.00;99.90
21830;DHT22;11077;50.264;6.798;2023-06-26T01:35:04;16.90;99.90
21830;DHT22;11077;50.264;6.798;2023-06-26T01:37:32;16.90;99.90
21830;DHT22;11077;50.264;6.798;2023-06-26T01:39:59;16.90;99.90
21830;DHT22;11077;50.264;6.798;2023-06-26T01:42:26;16.80;99.90
21830;DHT22;11077;50.264;6.798;2023-06-26T01:44:56;16.80;99.90
21830;DHT22;11077;50.264;6.798;2023-06-26T01:47:28;16.70;99.90
21830;DHT22;11077;50.264;6.798;2023-06-26T01:50:02;16.70;99.90
21830;DHT22;11077;50.264;6.798;2023-06-26T01:52:37;16.70;99.90
21830;DHT22;11077;50.264;6.798;2023-06-26T01:55:12;16.70;99.90
21830;DHT22;11077;50.264;6.798;2023-06-26T01:57:42;16.70;99.90
21830;DHT22;11077;50.264;6.798;2023-06-26T02:00:14;16.70;99.90
21830;DHT22;11077;50.264;6.798;2023-06-26T02:02:44;16.80;99.90
21830;DHT22;11077;50.264;6.798;2023-06-26T02:05:13;16.90;99.90
21830;DHT22;11077;50.264;6.798;2023-06-26T02:07:41;17.00;99.90
21830;DHT22;11077;50.264;6.798;2023-06-26T02:10:10;17.00;99.90
21830;DHT22;11077;50.264;6.798;2023-06-26T02:12:37;17.10;99.90
21830;DHT22;11077;50.264;6.798;2023-06-26T02:15:06;17.20;99.90
21830;DHT22;11077;50.264;6.798;2023-06-26T02:17:35;17.20;99.90
21830;DHT22;11077;50.264;6.798;2023-06-26T02:20:02;17.20;99.90
21830;DHT22;11077;50.264;6.798;2023-06-26T02:22:29;17.30;99.90
21830;DHT22;11077;50.264;6.798;2023-06-26T02:24:56;17.20;99.90
21830;DHT22;11077;50.264;6.798;2023-06-26T02:27:25;17.30;99.90
21830;DHT22;11077;50.264;6.798;2023-06-26T02:29:53;17.20;99.90
21830;DHT22;11077;50.264;6.798;2023-06-26T02:32:20;17.30;99.90
21830;DHT22;11077;50.264;6.798;2023-06-26T02:34:50;17.30;99.90
21830;DHT22;11077;50.264;6.798;2023-06-26T02:37:18;17.20;99.90
21830;DHT22;11077;50.264;6.798;2023-06-26T02:39:46;17.30;99.90
21830;DHT22;11077;50.264;6.798;2023-06-26T02:42:14;17.30;99.90
21830;DHT22;11077;50.264;6.798;2023-06-26T02:44:41;17.40;99.90
21830;DHT22;11077;50.264;6.798;2023-06-26T02:47:08;17.40;99.90
21830;DHT22;11077;50.264;6.798;2023-06-26T02:49:39;17.50;99.90
21830;DHT22;11077;50.264;6.798;2023-06-26T02:52:08;17.40;99.90
21830;DHT22;11077;50.264;6.798;2023-06-26T02:54:35;17.40;99.90
21830;DHT22;11077;50.264;6.798;2023-06-26T02:57:04;17.40;99.90
21830;DHT22;11077;50.264;6.798;2023-06-26T02:59:33;17.40;99.90
21830;DHT22;11077;50.264;6.798;2023-06-26T03:02:01;17.30;99.90
21830;DHT22;11077;50.264;6.798;2023-06-26T03:04:34;17.40;99.90
21830;DHT22;11077;50.264;6.798;2023-06-26T03:07:04;17.30;99.90
21830;DHT22;11077;50.264;6.798;2023-06-26T03:09:33;17.30;99.90
21830;DHT22;11077;50.264;6.798;2023-06-26T03:12:00;17.20;99.90
21830;DHT22;11077;50.264;6.798;2023-06-26T03:14:27;17.20;99.90
21830;DHT22;11077;50.264;6.798;2023-06-26T03:16:56;17.10;99.90
21830;DHT22;11077;50.264;6.798;2023-06-26T03:19:26;17.10;99.90
21830;DHT22;11077;50.264;6.798;2023-06-26T03:22:12;17.00;99.90
21830;DHT22;11077;50.264;6.798;2023-06-26T03:24:41;17.00;99.90
21830;DHT22;11077;50.264;6.798;2023-06-26T03:27:08;17.00;99.90
21830;DHT22;11077;50.264;6.798;2023-06-26T03:29:36;16.90;99.90
21830;DHT22;11077;50.264;6.798;2023-06-26T03:32:04;17.00;99.90
21830;DHT22;11077;50.264;6.798;2023-06-26T03:34:33;17.00;99.90
21830;DHT22;11077;50.264;6.798;2023-06-26T03:37:00;17.00;99.90
21830;DHT22;11077;50.264;6.798;2023-06-26T03:39:28;17.00;99.90
21830;DHT22;11077;50.264;6.798;2023-06-26T03:41:58;17.00;99.90
21830;DHT22;11077;50.264;6.798;2023-06-26T03:44:26;17.10;99.90
21830;DHT22;11077;50.264;6.798;2023-06-26T03:46:54;17.10;99.90
21830;DHT22;11077;50.264;6.798;2023-06-26T03:49:23;17.10;99.90
21830;DHT22;11077;50.264;6.798;2023-06-26T03:51:51;17.20;99.90
21830;DHT22;11077;50.264;6.798;2023-06-26T03:54:19;17.20;99.90
21830;DHT22;11077;50.264;6.798;2023-06-26T03:56:46;17.30;99.90
21830;DHT22;11077;50.264;6.798;2023-06-26T03:59:15;17.30;99.90
21830;DHT22;11077;50.264;6.798;2023-06-26T04:01:42;17.30;99.90
21830;DHT22;11077;50.264;6.798;2023-06-26T04:04:09;17.30;99.90
21830;DHT22;11077;50.264;6.798;2023-06-26T04:06:37;17.30;99.90
21830;DHT22;11077;50.264;6.798;2023-06-26T04:09:05;17.30;99.90
21830;DHT22;11077;50.264;6.798;2023-06-26T04:11:32;17.40;99.90
21830;DHT22;11077;50.264;6.798;2023-06-26T04:13:59;17.40;99.90
21830;DHT22;11077;50.264;6.798;2023-06-26T04:16:28;17.40;99.90
21830;DHT22;11077;50.264;6.798;2023-06-26T04:18:56;17.40;99.90
21830;DHT22;11077;50.264;6.798;2023-06-26T04:21:23;17.40;99.90
21830;DHT22;11077;50.264;6.798;2023-06-26T04:23:51;17.40;99.90
21830;DHT22;11077;50.264;6.798;2023-06-26T04:26:18;17.60;99.90
21830;DHT22;11077;50.264;6.798;2023-06-26T04:28:46;17.60;99.90
21830;DHT22;11077;50.264;6.798;2023-06-26T04:31:13;17.70;99.90
21830;DHT22;11077;50.264;6.798;2023-06-26T04:33:41;17.70;99.90
21830;DHT22;11077;50.264;6.798;2023-06-26T04:36:09;17.70;99.90
21830;DHT22;11077;50.264;6.798;2023-06-26T04:38:36;17.70;99.90
21830;DHT22;11077;50.264;6.798;2023-06-26T04:41:04;17.80;99.90
21830;DHT22;11077;50.264;6.798;2023-06-26T04:43:31;17.80;99.90
21830;DHT22;11077;50.264;6.798;2023-06-26T04:45:58;17.90;99.90
21830;DHT22;11077;50.264;6.798;2023-06-26T04:48:27;17.90;99.90
21830;DHT22;11077;50.264;6.798;2023-06-26T04:50:56;17.90;99.90
21830;DHT22;11077;50.264;6.798;2023-06-26T04:53:25;17.90;99.90
21830;DHT22;11077;50.264;6.798;2023-06-26T04:55:52;17.90;99.90
21830;DHT22;11077;50.264;6.798;2023-06-26T04:58:20;17.90;99.90
21830;DHT22;11077;50.264;6.798;2023-06-26T05:00:47;17.90;99.90
21830;DHT22;11077;50.264;6.798;2023-06-26T05:03:16;18.00;99.90
21830;DHT22;11077;50.264;6.798;2023-06-26T05:05:44;18.00;99.90
21830;DHT22;11077;50.264;6.798;2023-06-26T05:08:17;18.10;99.90
21830;DHT22;11077;50.264;6.798;2023-06-26T05:10:45;18.10;99.90
21830;DHT22;11077;50.264;6.798;2023-06-26T05:13:12;18.10;99.90
21830;DHT22;11077;50.264;6.798;2023-06-26T05:15:41;18.00;99.90
21830;DHT22;11077;50.264;6.798;2023-06-26T05:18:08;18.10;99.90
21830;DHT22;11077;50.264;6.798;2023-06-26T05:20:36;18.00;99.90
21830;DHT22;11077;50.264;6.798;2023-06-26T05:23:04;18.10;99.90
21830;DHT22;11077;50.264;6.798;2023-06-26T05:25:33;18.10;99.90
21830;DHT22;11077;50.264;6.798;2023-06-26T05:28:01;18.10;99.90
21830;DHT22;11077;50.264;6.798;2023-06-26T05:30:31;18.10;99.90
21830;DHT22;11077;50.264;6.798;2023-06-26T05:33:01;18.10;99.90
21830;DHT22;11077;50.264;6.798;2023-06-26T05:35:29;18.10;99.90
21830;DHT22;11077;50.264;6.798;2023-06-26T05:37:57;18.20;99.90
21830;DHT22;11077;50.264;6.798;2023-06-26T05:40:25;18.20;99.90
21830;DHT22;11077;50.264;6.798;2023-06-26T05:42:54;18.20;99.90
21830;DHT22;11077;50.264;6.798;2023-06-26T05:45:22;18.20;99.90
21830;DHT22;11077;50.264;6.798;2023-06-26T05:47:49;18.30;99.90
21830;DHT22;11077;50.264;6.798;2023-06-26T05:50:18;18.30;99.90
21830;DHT22;11077;50.264;6.798;2023-06-26T05:52:46;18.40;99.90
21830;DHT22;11077;50.264;6.798;2023-06-26T05:55:14;18.40;99.90
21830;DHT22;11077;50.264;6.798;2023-06-26T05:57:41;18.40;99.90
21830;DHT22;11077;50.264;6.798;2023-06-26T06:00:11;18.40;99.90
21830;DHT22;11077;50.264;6.798;2023-06-26T06:02:42;18.40;99.90
21830;DHT22;11077;50.264;6.798;2023-06-26T06:05:09;18.50;99.90
21830;DHT22;11077;50.264;6.798;2023-06-26T06:07:37;18.50;99.90
21830;DHT22;11077;50.264;6.798;2023-06-26T06:10:05;18.50;99.90
21830;DHT22;11077;50.264;6.798;2023-06-26T06:12:32;18.60;99.90
21830;DHT22;11077;50.264;6.798;2023-06-26T06:14:59;18.60;99.90
21830;DHT22;11077;50.264;6.798;2023-06-26T06:17:28;18.60;99.90
21830;DHT22;11077;50.264;6.798;2023-06-26T06:19:55;18.70;99.90
21830;DHT22;11077;50.264;6.798;2023-06-26T06:22:22;18.70;99.90
21830;DHT22;11077;50.264;6.798;2023-06-26T06:24:50;18.70;99.90
21830;DHT22;11077;50.264;6.798;2023-06-26T06:27:17;18.80;99.90
21830;DHT22;11077;50.264;6.798;2023-06-26T06:29:44;18.90;99.90
21830;DHT22;11077;50.264;6.798;2023-06-26T06:32:12;18.90;99.90
21830;DHT22;11077;50.264;6.798;2023-06-26T06:34:40;19.00;99.90
21830;DHT22;11077;50.264;6.798;2023-06-26T06:37:07;19.10;99.90
21830;DHT22;11077;50.264;6.798;2023-06-26T06:39:35;19.10;99.90
21830;DHT22;11077;50.264;6.798;2023-06-26T06:42:02;19.20;99.90
21830;DHT22;11077;50.264;6.798;2023-06-26T06:44:29;19.20;99.90
21830;DHT22;11077;50.264;6.798;2023-06-26T06:46:57;19.20;99.90
21830;DHT22;11077;50.264;6.798;2023-06-26T06:49:24;19.20;99.90
21830;DHT22;11077;50.264;6.798;2023-06-26T06:51:53;19.10;99.90
21830;DHT22;11077;50.264;6.798;2023-06-26T06:54:20;19.10;99.90
21830;DHT22;11077;50.264;6.798;2023-06-26T06:56:48;19.00;99.90
21830;DHT22;11077;50.264;6.798;2023-06-26T06:59:15;19.00;99.90
21830;DHT22;11077;50.264;6.798;2023-06-26T07:01:42;19.10;99.90
21830;DHT22;11077;50.264;6.798;2023-06-26T07:04:09;19.10;99.90
21830;DHT22;11077;50.264;6.798;2023-06-26T07:06:36;19.20;99.90
21830;DHT22;11077;50.264;6.798;2023-06-26T07:09:05;19.20;99.90
21830;DHT22;11077;50.264;6.798;2023-06-26T07:11:32;19.20;99.90
21830;DHT22;11077;50.264;6.798;2023-06-26T07:13:59;19.20;99.90
21830;DHT22;11077;50.264;6.798;2023-06-26T07:16:26;19.30;99.90
21830;DHT22;11077;50.264;6.798;2023-06-26T07:18:54;19.40;99.90
21830;DHT22;11077;50.264;6.798;2023-06-26T07:21:21;19.40;99.90
21830;DHT22;11077;50.264;6.798;2023-06-26T07:23:48;19.40;99.90
21830;DHT22;11077;50.264;6.798;2023-06-26T07:26:17;19.50;99.90
21830;DHT22;11077;50.264;6.798;2023-06-26T07:28:44;19.60;99.90
21830;DHT22;11077;50.264;6.798;2023-06-26T07:31:11;19.60;99.90
21830;DHT22;11077;50.264;6.798;2023-06-26T07:33:38;19.60;99.90
21830;DHT22;11077;50.264;6.798;2023-06-26T07:36:06;19.70;99.90
21830;DHT22;11077;50.264;6.798;2023-06-26T07:38:33;19.70;99.90
21830;DHT22;11077;50.264;6.798;2023-06-26T07:41:00;19.80;99.90
21830;DHT22;11077;50.264;6.798;2023-06-26T07:43:29;19.90;99.90
21830;DHT22;11077;50.264;6.798;2023-06-26T07:45:56;20.00;99.90
21830;DHT22;11077;50.264;6.798;2023-06-26T07:48:24;20.10;99.90
21830;DHT22;11077;50.264;6.798;2023-06-26T07:50:51;20.20;99.90
21830;DHT22;11077;50.264;6.798;2023-06-26T07:53:19;20.20;99.90
21830;DHT22;11077;50.264;6.798;2023-06-26T07:55:46;20.30;99.90
21830;DHT22;11077;50.264;6.798;2023-06-26T07:58:13;20.40;99.90
21830;DHT22;11077;50.264;6.798;2023-06-26T08:00:42;20.50;99.90
21830;DHT22;11077;50.264;6.798;2023-06-26T08:03:09;20.40;99.90
21830;DHT22;11077;50.264;6.798;2023-06-26T08:05:36;20.50;99.90
21830;DHT22;11077;50.264;6.798;2023-06-26T08:08:04;20.50;99.90
21830;DHT22;11077;50.264;6.798;2023-06-26T08:10:32;20.60;99.90
21830;DHT22;11077;50.264;6.798;2023-06-26T08:13:00;20.70;99.90
21830;DHT22;11077;50.264;6.798;2023-06-26T08:15:27;20.70;99.90
21830;DHT22;11077;50.264;6.798;2023-06-26T08:17:56;20.70;99.90
21830;DHT22;11077;50.264;6.798;2023-06-26T08:20:23;20.80;99.90
21830;DHT22;11077;50.264;6.798;2023-06-26T08:22:50;20.90;99.90
21830;DHT22;11077;50.264;6.798;2023-06-26T08:25:19;21.00;99.90
21830;DHT22;11077;50.264;6.798;2023-06-26T08:27:46;20.90;99.90
21830;DHT22;11077;50.264;6.798;2023-06-26T08:30:13;21.00;99.90
21830;DHT22;11077;50.264;6.798;2023-06-26T08:32:40;21.00;99.90
21830;DHT22;11077;50.264;6.798;2023-06-26T08:35:09;21.10;99.90
21830;DHT22;11077;50.264;6.798;2023-06-26T08:37:36;21.30;99.90
21830;DHT22;11077;50.264;6.798;2023-06-26T08:40:04;21.20;99.90
21830;DHT22;11077;50.264;6.798;2023-06-26T08:42:32;21.30;99.90
21830;DHT22;11077;50.264;6.798;2023-06-26T08:44:59;21.20;99.90
21830;DHT22;11077;50.264;6.798;2023-06-26T08:47:27;21.20;99.90
21830;DHT22;11077;50.264;6.798;2023-06-26T08:50:03;21.20;99.90
21830;DHT22;11077;50.264;6.798;2023-06-26T08:52:37;21.20;99.90
21830;DHT22;11077;50.264;6.798;2023-06-26T08:55:26;21.20;99.90
21830;DHT22;11077;50.264;6.798;2023-06-26T08:58:08;21.30;99.90
21830;DHT22;11077;50.264;6.798;2023-06-26T09:00:47;21.40;99.90
21830;DHT22;11077;50.264;6.798;2023-06-26T09:03:19;21.50;99.90
21830;DHT22;11077;50.264;6.798;2023-06-26T09:05:53;21.50;99.90
21830;DHT22;11077;50.264;6.798;2023-06-26T09:08:25;21.60;99.90
21830;DHT22;11077;50.264;6.798;2023-06-26T09:11:09;21.60;99.90
21830;DHT22;11077;50.264;6.798;2023-06-26T09:13:55;21.70;99.90
21830;DHT22;11077;50.264;6.798;2023-06-26T09:16:30;21.80;99.90
21830;DHT22;11077;50.264;6.798;2023-06-26T09:19:27;21.90;99.90
21830;DHT22;11077;50.264;6.798;2023-06-26T09:22:24;22.20;99.90
21830;DHT22;11077;50.264;6.798;2023-06-26T09:25:02;22.30;99.90
21830;DHT22;11077;50.264;6.798;2023-06-26T09:27:34;22.40;99.90
21830;DHT22;11077;50.264;6.798;2023-06-26T09:30:19;22.60;99.90
21830;DHT22;11077;50.264;6.798;2023-06-26T09:32:47;22.40;99.90
21830;DHT22;11077;50.264;6.798;2023-06-26T09:35:17;22.40;99.90
21830;DHT22;11077;50.264;6.798;2023-06-26T09:37:46;22.30;99.90
21830;DHT22;11077;50.264;6.798;2023-06-26T09:40:17;22.40;99.90
21830;DHT22;11077;50.264;6.798;2023-06-26T09:42:52;22.60;99.90
21830;DHT22;11077;50.264;6.798;2023-06-26T09:45:32;22.70;99.90
21830;DHT22;11077;50.264;6.798;2023-06-26T09:48:15;22.70;99.90
21830;DHT22;11077;50.264;6.798;2023-06-26T09:50:50;22.80;99.90
21830;DHT22;11077;50.264;6.798;2023-06-26T09:53:20;22.70;99.90
21830;DHT22;11077;50.264;6.798;2023-06-26T09:55:50;22.50;99.90
21830;DHT22;11077;50.264;6.798;2023-06-26T09:58:18;22.50;99.90
21830;DHT22;11077;50.264;6.798;2023-06-26T10:00:47;22.50;99.90
21830;DHT22;11077;50.264;6.798;2023-06-26T10:03:19;22.70;99.90
21830;DHT22;11077;50.264;6.798;2023-06-26T10:05:48;22.80;99.90
21830;DHT22;11077;50.264;6.798;2023-06-26T10:08:17;22.90;99.90
21830;DHT22;11077;50.264;6.798;2023-06-26T10:10:52;23.00;99.90
21830;DHT22;11077;50.264;6.798;2023-06-26T10:13:22;23.00;99.90
21830;DHT22;11077;50.264;6.798;2023-06-26T10:15:51;23.00;99.90
21830;DHT22;11077;50.264;6.798;2023-06-26T10:18:24;22.90;99.90
21830;DHT22;11077;50.264;6.798;2023-06-26T10:20:56;23.00;99.90
21830;DHT22;11077;50.264;6.798;2023-06-26T10:23:25;23.00;99.90
21830;DHT22;11077;50.264;6.798;2023-06-26T10:26:00;23.10;99.90
21830;DHT22;11077;50.264;6.798;2023-06-26T10:28:29;23.10;99.90
21830;DHT22;11077;50.264;6.798;2023-06-26T10:31:10;23.20;99.90
21830;DHT22;11077;50.264;6.798;2023-06-26T10:33:39;23.20;99.90
21830;DHT22;11077;50.264;6.798;2023-06-26T10:36:14;23.10;99.90
21830;DHT22;11077;50.264;6.798;2023-06-26T10:38:49;23.20;99.90
21830;DHT22;11077;50.264;6.798;2023-06-26T10:41:22;23.40;99.90
21830;DHT22;11077;50.264;6.798;2023-06-26T10:44:09;23.50;99.90
21830;DHT22;11077;50.264;6.798;2023-06-26T10:46:53;23.50;99.90
21830;DHT22;11077;50.264;6.798;2023-06-26T10:49:29;23.40;99.50
21830;DHT22;11077;50.264;6.798;2023-06-26T10:52:01;23.40;99.90
21830;DHT22;11077;50.264;6.798;2023-06-26T10:54:32;23.40;99.90
21830;DHT22;11077;50.264;6.798;2023-06-26T10:57:04;23.40;99.90
21830;DHT22;11077;50.264;6.798;2023-06-26T10:59:39;23.40;99.40
21830;DHT22;11077;50.264;6.798;2023-06-26T11:02:07;23.40;99.90
21830;DHT22;11077;50.264;6.798;2023-06-26T11:04:44;23.50;99.70
21830;DHT22;11077;50.264;6.798;2023-06-26T11:07:20;23.50;96.50
21830;DHT22;11077;50.264;6.798;2023-06-26T11:09:57;23.40;96.40
21830;DHT22;11077;50.264;6.798;2023-06-26T11:12:38;23.40;98.20
21830;DHT22;11077;50.264;6.798;2023-06-26T11:15:08;23.50;97.70
21830;DHT22;11077;50.264;6.798;2023-06-26T11:17:42;23.60;99.20
21830;DHT22;11077;50.264;6.798;2023-06-26T11:20:14;23.60;97.90
21830;DHT22;11077;50.264;6.798;2023-06-26T11:22:45;23.60;96.80
21830;DHT22;11077;50.264;6.798;2023-06-26T11:25:20;23.80;97.80
21830;DHT22;11077;50.264;6.798;2023-06-26T11:27:49;23.70;95.90
21830;DHT22;11077;50.264;6.798;2023-06-26T11:30:28;24.20;96.70
21830;DHT22;11077;50.264;6.798;2023-06-26T11:33:05;24.10;97.30
21830;DHT22;11077;50.264;6.798;2023-06-26T11:35:34;24.10;95.20
21830;DHT22;11077;50.264;6.798;2023-06-26T11:38:03;23.90;94.50
21830;DHT22;11077;50.264;6.798;2023-06-26T11:40:33;23.90;95.90
21830;DHT22;11077;50.264;6.798;2023-06-26T11:43:12;24.10;95.60
21830;DHT22;11077;50.264;6.798;2023-06-26T11:45:40;24.20;95.40
21830;DHT22;11077;50.264;6.798;2023-06-26T11:48:13;24.20;95.30
21830;DHT22;11077;50.264;6.798;2023-06-26T11:50:57;24.30;95.00
21830;DHT22;11077;50.264;6.798;2023-06-26T11:53:32;24.40;93.90
21830;DHT22;11077;50.264;6.798;2023-06-26T11:56:11;24.40;94.00
21830;DHT22;11077;50.264;6.798;2023-06-26T11:58:59;24.70;95.90
21830;DHT22;11077;50.264;6.798;2023-06-26T12:01:32;24.70;93.40
21830;DHT22;11077;50.264;6.798;2023-06-26T12:04:02;24.60;92.20
21830;DHT22;11077;50.264;6.798;2023-06-26T12:06:37;24.50;92.80
21830;DHT22;11077;50.264;6.798;2023-06-26T12:09:07;24.40;93.40
21830;DHT22;11077;50.264;6.798;2023-06-26T12:11:42;24.30;93.60
21830;DHT22;11077;50.264;6.798;2023-06-26T12:14:15;24.60;94.50
21830;DHT22;11077;50.264;6.798;2023-06-26T12:16:45;24.70;93.30
21830;DHT22;11077;50.264;6.798;2023-06-26T12:19:16;24.60;93.40
21830;DHT22;11077;50.264;6.798;2023-06-26T12:21:46;24.60;94.10
21830;DHT22;11077;50.264;6.798;2023-06-26T12:24:15;24.90;93.60
21830;DHT22;11077;50.264;6.798;2023-06-26T12:26:44;25.20;94.40
21830;DHT22;11077;50.264;6.798;2023-06-26T12:29:17;25.40;92.30
21830;DHT22;11077;50.264;6.798;2023-06-26T12:31:49;25.30;92.50
21830;DHT22;11077;50.264;6.798;2023-06-26T12:34:20;25.30;91.40
21830;DHT22;11077;50.264;6.798;2023-06-26T12:36:51;25.40;93.80
21830;DHT22;11077;50.264;6.798;2023-06-26T12:39:21;25.40;91.20
21830;DHT22;11077;50.264;6.798;2023-06-26T12:41:57;25.20;91.70
21830;DHT22;11077;50.264;6.798;2023-06-26T12:44:30;25.30;91.90
21830;DHT22;11077;50.264;6.798;2023-06-26T12:47:05;25.20;92.20
21830;DHT22;11077;50.264;6.798;2023-06-26T12:49:37;25.20;92.10
21830;DHT22;11077;50.264;6.798;2023-06-26T12:52:06;25.20;92.50
21830;DHT22;11077;50.264;6.798;2023-06-26T12:54:36;25.10;91.70
21830;DHT22;11077;50.264;6.798;2023-06-26T12:57:04;24.80;91.20
21830;DHT22;11077;50.264;6.798;2023-06-26T12:59:36;24.70;92.10
21830;DHT22;11077;50.264;6.798;2023-06-26T13:02:05;24.70;91.40
21830;DHT22;11077;50.264;6.798;2023-06-26T13:04:38;24.50;92.50
21830;DHT22;11077;50.264;6.798;2023-06-26T13:07:08;24.30;93.10
21830;DHT22;11077;50.264;6.798;2023-06-26T13:09:38;24.30;92.60
21830;DHT22;11077;50.264;6.798;2023-06-26T13:12:07;24.40;93.90
21830;DHT22;11077;50.264;6.798;2023-06-26T13:14:37;24.40;93.90
21830;DHT22;11077;50.264;6.798;2023-06-26T13:17:07;24.40;93.30
21830;DHT22;11077;50.264;6.798;2023-06-26T13:19:37;24.40;93.30
21830;DHT22;11077;50.264;6.798;2023-06-26T13:22:10;24.30;92.40
21830;DHT22;11077;50.264;6.798;2023-06-26T13:24:38;24.10;92.70
21830;DHT22;11077;50.264;6.798;2023-06-26T13:27:07;23.90;91.20
21830;DHT22;11077;50.264;6.798;2023-06-26T13:29:39;23.80;92.20
21830;DHT22;11077;50.264;6.798;2023-06-26T13:32:08;23.70;92.70
21830;DHT22;11077;50.264;6.798;2023-06-26T13:34:37;23.40;93.40
21830;DHT22;11077;50.264;6.798;2023-06-26T13:37:06;23.20;92.90
21830;DHT22;11077;50.264;6.798;2023-06-26T13:39:34;23.10;92.70
21830;DHT22;11077;50.264;6.798;2023-06-26T13:42:03;22.90;92.30
21830;DHT22;11077;50.264;6.798;2023-06-26T13:44:31;22.90;93.00
21830;DHT22;11077;50.264;6.798;2023-06-26T13:47:03;23.00;92.60
21830;DHT22;11077;50.264;6.798;2023-06-26T13:49:34;22.90;93.70
21830;DHT22;11077;50.264;6.798;2023-06-26T13:52:01;23.00;93.50
21830;DHT22;11077;50.264;6.798;2023-06-26T13:54:29;23.00;94.00
21830;DHT22;11077;50.264;6.798;2023-06-26T13:56:57;23.10;93.40
21830;DHT22;11077;50.264;6.798;2023-06-26T13:59:28;23.10;94.70
21830;DHT22;11077;50.264;6.798;2023-06-26T14:02:00;23.30;93.80
21830;DHT22;11077;50.264;6.798;2023-06-26T14:04:35;23.50;94.80
21830;DHT22;11077;50.264;6.798;2023-06-26T14:07:04;23.30;93.00
21830;DHT22;11077;50.264;6.798;2023-06-26T14:09:35;23.10;93.80
21830;DHT22;11077;50.264;6.798;2023-06-26T14:12:05;22.80;93.70
21830;DHT22;11077;50.264;6.798;2023-06-26T14:14:33;22.80;94.50
21830;DHT22;11077;50.264;6.798;2023-06-26T14:17:05;22.70;93.70
21830;DHT22;11077;50.264;6.798;2023-06-26T14:19:35;22.60;94.30
21830;DHT22;11077;50.264;6.798;2023-06-26T14:22:05;22.40;93.90
21830;DHT22;11077;50.264;6.798;2023-06-26T14:24:32;22.20;94.20
21830;DHT22;11077;50.264;6.798;2023-06-26T14:27:05;22.20;94.50
21830;DHT22;11077;50.264;6.798;2023-06-26T14:29:33;22.00;94.50
21830;DHT22;11077;50.264;6.798;2023-06-26T14:32:08;21.90;94.10
21830;DHT22;11077;50.264;6.798;2023-06-26T14:34:40;22.10;94.60
21830;DHT22;11077;50.264;6.798;2023-06-26T14:37:08;22.20;94.30
21830;DHT22;11077;50.264;6.798;2023-06-26T14:39:36;22.50;94.90
21830;DHT22;11077;50.264;6.798;2023-06-26T14:42:04;22.60;94.30
21830;DHT22;11077;50.264;6.798;2023-06-26T14:44:32;22.70;93.50
21830;DHT22;11077;50.264;6.798;2023-06-26T14:47:01;22.70;93.80
21830;DHT22;11077;50.264;6.798;2023-06-26T14:49:34;22.80;94.70
21830;DHT22;11077;50.264;6.798;2023-06-26T14:52:04;22.90;93.40
21830;DHT22;11077;50.264;6.798;2023-06-26T14:54:33;22.90;94.20
21830;DHT22;11077;50.264;6.798;2023-06-26T14:57:02;22.90;93.60
21830;DHT22;11077;50.264;6.798;2023-06-26T14:59:32;22.70;92.90
21830;DHT22;11077;50.264;6.798;2023-06-26T15:02:00;22.60;93.50
21830;DHT22;11077;50.264;6.798;2023-06-26T15:04:28;22.60;93.20
21830;DHT22;11077;50.264;6.798;2023-06-26T15:07:01;22.70;92.60
21830;DHT22;11077;50.264;6.798;2023-06-26T15:09:29;22.60;92.80
21830;DHT22;11077;50.264;6.798;2023-06-26T15:11:58;22.60;93.40
21830;DHT22;11077;50.264;6.798;2023-06-26T15:14:26;22.50;93.40
21830;DHT22;11077;50.264;6.798;2023-06-26T15:16:54;22.40;93.70
21830;DHT22;11077;50.264;6.798;2023-06-26T15:19:21;22.30;92.80
21830;DHT22;11077;50.264;6.798;2023-06-26T15:21:49;22.20;93.40
21830;DHT22;11077;50.264;6.798;2023-06-26T15:24:17;22.20;92.40
21830;DHT22;11077;50.264;6.798;2023-06-26T15:26:45;22.10;92.20
21830;DHT22;11077;50.264;6.798;2023-06-26T15:29:13;22.30;93.10
21830;DHT22;11077;50.264;6.798;2023-06-26T15:31:43;22.30;93.30
21830;DHT22;11077;50.264;6.798;2023-06-26T15:34:11;22.50;93.00
21830;DHT22;11077;50.264;6.798;2023-06-26T15:36:39;22.60;93.40
21830;DHT22;11077;50.264;6.798;2023-06-26T15:41:38;22.30;92.90
21830;DHT22;11077;50.264;6.798;2023-06-26T15:44:05;22.20;94.00
21830;DHT22;11077;50.264;6.798;2023-06-26T15:46:33;22.20;94.00
21830;DHT22;11077;50.264;6.798;2023-06-26T15:49:03;22.40;93.90